Time,TemperatureF,DewpointF,PressureIn,WindDirection,WindDirectionDegrees,WindSpeedMPH,WindSpeedGustMPH,Humidity,HourlyPrecipIn,Conditions,Clouds,dailyrainin,SoftwareType,DateUTC
2013-04-20 00:03:00,41.0,29.0,-100.00,North,10,7.0,18.0,62,0.00,,,-99.99,,2013-04-20 04:03:00,
2013-04-20 00:12:00,41.0,29.0,-100.00,North,0,11.0,21.0,63,0.00,,,-99.99,,2013-04-20 04:12:00,
2013-04-20 00:23:00,41.0,30.0,-100.00,NNE,15,12.0,19.0,64,0.00,,,-99.99,,2013-04-20 04:23:00,
2013-04-20 00:33:00,41.0,29.0,-100.00,North,0,10.0,18.0,63,0.00,,,-99.99,,2013-04-20 04:33:00,
2013-04-20 00:42:00,40.0,30.0,-100.00,North,350,8.0,17.0,65,0.00,,,-99.99,,2013-04-20 04:42:00,
2013-04-20 00:52:00,40.0,30.0,-100.00,North,10,12.0,17.0,65,0.00,,,-99.99,,2013-04-20 04:52:00,
2013-04-20 01:02:00,40.0,30.0,-100.00,NNE,15,12.0,18.0,66,0.00,,,-99.99,,2013-04-20 05:02:00,
2013-04-20 01:12:00,40.0,30.0,-100.00,North,10,9.0,16.0,66,0.00,,,-99.99,,2013-04-20 05:12:00,
2013-04-20 01:22:00,40.0,30.0,-100.00,North,0,10.0,17.0,67,0.00,,,-99.99,,2013-04-20 05:22:00,
2013-04-20 01:32:00,39.0,30.0,-100.00,North,0,7.0,16.0,68,0.00,,,-99.99,,2013-04-20 05:32:00,
2013-04-20 01:43:00,39.0,30.0,-100.00,North,350,7.0,14.0,69,0.00,,,-99.99,,2013-04-20 05:43:00,
2013-04-20 01:51:00,39.0,30.0,-100.00,North,350,9.0,14.0,69,0.00,,,-99.99,,2013-04-20 05:51:00,
2013-04-20 02:02:00,40.0,30.0,-100.00,North,0,9.0,13.0,69,0.00,,,-99.99,,2013-04-20 06:02:00,
2013-04-20 02:12:00,40.0,30.0,-100.00,North,0,7.0,15.0,69,0.00,,,-99.99,,2013-04-20 06:12:00,
2013-04-20 02:21:00,40.0,30.0,-100.00,North,355,10.0,18.0,68,0.00,,,-99.99,,2013-04-20 06:21:00,
2013-04-20 02:32:00,39.0,30.0,-100.00,NNW,340,6.0,17.0,69,0.00,,,-99.99,,2013-04-20 06:32:00,
2013-04-20 02:42:00,39.0,30.0,-100.00,North,0,14.0,22.0,70,0.00,,,-99.99,,2013-04-20 06:42:00,
2013-04-20 02:52:00,39.0,31.0,-100.00,North,0,14.0,23.0,71,0.00,,,-99.99,,2013-04-20 06:52:00,
2013-04-20 03:01:00,37.0,33.0,-100.00,NNE,30,12.0,24.0,85,0.00,,,-99.99,,2013-04-20 07:01:00,
2013-04-20 03:11:00,37.0,32.0,-100.00,NE,50,17.0,25.0,83,0.00,,,-99.99,,2013-04-20 07:11:00,
2013-04-20 03:21:00,35.0,31.0,-100.00,NNE,30,11.0,27.0,88,1.69,,,-99.99,,2013-04-20 07:21:00,
2013-04-20 03:32:00,35.0,32.0,-100.00,NNE,30,11.0,20.0,89,0.00,,,-99.99,,2013-04-20 07:32:00,
2013-04-20 03:42:00,35.0,32.0,-100.00,NNE,25,8.0,19.0,88,0.00,,,-99.99,,2013-04-20 07:42:00,
2013-04-20 03:52:00,35.0,32.0,-100.00,NE,40,4.0,18.0,88,0.00,,,-99.99,,2013-04-20 07:52:00,
2013-04-20 04:02:00,35.0,32.0,-100.00,North,5,4.0,12.0,88,0.00,,,-99.99,,2013-04-20 08:02:00,
2013-04-20 04:11:00,35.0,32.0,-100.00,North,0,6.0,9.0,87,0.00,,,-99.99,,2013-04-20 08:11:00,
2013-04-20 04:21:00,35.0,32.0,-100.00,NNE,25,4.0,9.0,88,0.00,,,-99.99,,2013-04-20 08:21:00,
2013-04-20 04:32:00,35.0,32.0,-100.00,NNE,15,7.0,10.0,88,0.00,,,-99.99,,2013-04-20 08:32:00,
2013-04-20 04:42:00,36.0,32.0,-100.00,NNE,20,6.0,11.0,86,0.00,,,-99.99,,2013-04-20 08:42:00,
2013-04-20 04:52:00,36.0,32.0,-100.00,North,0,6.0,11.0,86,0.00,,,-99.99,,2013-04-20 08:52:00,
2013-04-20 05:02:00,36.0,32.0,-100.00,North,5,7.0,11.0,85,0.00,,,-99.99,,2013-04-20 09:02:00,
2013-04-20 05:12:00,37.0,32.0,-100.00,North,5,7.0,10.0,84,0.00,,,-99.99,,2013-04-20 09:12:00,
2013-04-20 05:21:00,37.0,32.0,-100.00,North,10,9.0,12.0,82,0.00,,,-99.99,,2013-04-20 09:21:00,
2013-04-20 05:33:00,37.0,31.0,-100.00,NNE,20,10.0,16.0,80,0.00,,,-99.99,,2013-04-20 09:33:00,
2013-04-20 05:43:00,37.0,31.0,-100.00,NNE,25,9.0,15.0,79,0.00,,,-99.99,,2013-04-20 09:43:00,
2013-04-20 05:53:00,37.0,31.0,-100.00,NNE,20,7.0,11.0,81,0.00,,,-99.99,,2013-04-20 09:53:00,
2013-04-20 06:03:00,37.0,31.0,-100.00,NNE,20,6.0,11.0,80,0.00,,,-99.99,,2013-04-20 10:03:00,
2013-04-20 06:13:00,37.0,31.0,-100.00,NNE,25,8.0,18.0,78,0.00,,,-99.99,,2013-04-20 10:13:00,
2013-04-20 06:23:00,37.0,31.0,-100.00,NNE,25,9.0,14.0,78,0.00,,,-99.99,,2013-04-20 10:23:00,
2013-04-20 06:33:00,37.0,31.0,-100.00,North,0,9.0,14.0,77,0.00,,,-99.99,,2013-04-20 10:33:00,
2013-04-20 06:42:00,37.0,30.0,-100.00,NNE,20,12.0,19.0,75,0.00,,,-99.99,,2013-04-20 10:42:00,
2013-04-20 06:52:00,37.0,29.0,-100.00,NNE,25,11.0,20.0,74,0.00,,,-99.99,,2013-04-20 10:52:00,
2013-04-20 07:02:00,37.0,30.0,-100.00,NNE,20,12.0,22.0,76,0.00,,,-99.99,,2013-04-20 11:02:00,
2013-04-20 07:12:00,37.0,29.0,-100.00,NNE,25,12.0,18.0,74,0.00,,,-99.99,,2013-04-20 11:12:00,
2013-04-20 07:23:00,37.0,28.0,-100.00,NE,35,11.0,22.0,70,0.00,,,-99.99,,2013-04-20 11:23:00,
2013-04-20 07:32:00,37.0,28.0,-100.00,NE,45,8.0,17.0,69,0.00,,,-99.99,,2013-04-20 11:32:00,
2013-04-20 07:42:00,37.0,27.0,-100.00,NE,40,11.0,17.0,67,0.00,,,-99.99,,2013-04-20 11:42:00,
2013-04-20 07:52:00,37.0,26.0,-100.00,NE,40,9.0,16.0,65,0.00,,,-99.99,,2013-04-20 11:52:00,
2013-04-20 08:02:00,37.0,26.0,-100.00,NE,50,10.0,21.0,65,0.00,,,-99.99,,2013-04-20 12:02:00,
2013-04-20 08:11:00,37.0,26.0,-100.00,ENE,65,10.0,19.0,65,0.00,,,-99.99,,2013-04-20 12:11:00,
2013-04-20 08:22:00,37.0,27.0,-100.00,NE,50,9.0,16.0,66,0.00,,,-99.99,,2013-04-20 12:22:00,
2013-04-20 08:32:00,37.0,27.0,-100.00,NNE,30,8.0,17.0,66,0.00,,,-99.99,,2013-04-20 12:32:00,
2013-04-20 08:42:00,38.0,27.0,-100.00,NE,40,6.0,16.0,65,0.00,,,-99.99,,2013-04-20 12:42:00,
2013-04-20 08:52:00,38.0,26.0,-100.00,NE,50,11.0,22.0,62,0.00,,,-99.99,,2013-04-20 12:52:00,
2013-04-20 09:02:00,38.0,26.0,-100.00,ENE,60,9.0,19.0,60,0.00,,,-99.99,,2013-04-20 13:02:00,
2013-04-20 09:11:00,39.0,25.0,-100.00,NE,50,9.0,16.0,57,0.00,,,-99.99,,2013-04-20 13:11:00,
2013-04-20 09:21:00,39.0,24.0,-100.00,NE,45,12.0,23.0,56,0.00,,,-99.99,,2013-04-20 13:21:00,
2013-04-20 09:32:00,39.0,24.0,-100.00,NE,50,12.0,20.0,54,0.00,,,-99.99,,2013-04-20 13:32:00,
2013-04-20 09:42:00,40.0,24.0,-100.00,NE,45,15.0,22.0,54,0.00,,,-99.99,,2013-04-20 13:42:00,
2013-04-20 09:52:00,40.0,25.0,-100.00,East,80,12.0,19.0,55,0.00,,,-99.99,,2013-04-20 13:52:00,
2013-04-20 10:02:00,39.0,24.0,-100.00,NE,45,14.0,19.0,54,0.00,,,-99.99,,2013-04-20 14:02:00,
2013-04-20 10:11:00,40.0,25.0,-100.00,NE,40,14.0,21.0,54,0.00,,,-99.99,,2013-04-20 14:11:00,
2013-04-20 10:21:00,40.0,25.0,-100.00,NE,40,11.0,19.0,54,0.00,,,-99.99,,2013-04-20 14:21:00,
2013-04-20 10:32:00,40.0,26.0,-100.00,ENE,65,7.0,19.0,56,0.00,,,-99.99,,2013-04-20 14:32:00,
2013-04-20 10:42:00,40.0,26.0,-100.00,North,10,12.0,17.0,57,0.00,,,-99.99,,2013-04-20 14:42:00,
2013-04-20 10:51:00,41.0,27.0,-100.00,NNE,20,11.0,18.0,57,0.00,,,-99.99,,2013-04-20 14:51:00,
2013-04-20 11:02:00,42.0,27.0,-100.00,NNE,25,12.0,20.0,54,0.00,,,-99.99,,2013-04-20 15:02:00,
2013-04-20 11:12:00,40.0,24.0,-100.00,NNE,25,13.0,22.0,53,0.00,,,-99.99,,2013-04-20 15:12:00,
2013-04-20 11:21:00,41.0,24.0,-100.00,NE,40,11.0,18.0,51,0.00,,,-99.99,,2013-04-20 15:21:00,
2013-04-20 11:33:00,41.0,25.0,-100.00,East,80,8.0,14.0,52,0.00,,,-99.99,,2013-04-20 15:33:00,
2013-04-20 11:43:00,41.0,26.0,-100.00,NNE,30,9.0,16.0,54,0.00,,,-99.99,,2013-04-20 15:43:00,
2013-04-20 11:53:00,41.0,24.0,-100.00,NNE,30,9.0,17.0,51,0.00,,,-99.99,,2013-04-20 15:53:00,
2013-04-20 12:03:00,42.0,26.0,-100.00,NE,40,7.0,17.0,53,0.00,,,-99.99,,2013-04-20 16:03:00,
2013-04-20 12:12:00,41.0,24.0,-100.00,NE,50,11.0,18.0,50,0.00,,,-99.99,,2013-04-20 16:12:00,
2013-04-20 12:23:00,42.0,26.0,-100.00,NNE,25,8.0,16.0,53,0.00,,,-99.99,,2013-04-20 16:23:00,
2013-04-20 12:33:00,42.0,25.0,-100.00,NE,50,9.0,16.0,50,0.00,,,-99.99,,2013-04-20 16:33:00,
2013-04-20 12:42:00,42.0,24.0,-100.00,NE,45,9.0,16.0,50,0.00,,,-99.99,,2013-04-20 16:42:00,
2013-04-20 12:52:00,42.0,26.0,-100.00,NE,40,12.0,19.0,51,0.00,,,-99.99,,2013-04-20 16:52:00,
2013-04-20 13:02:00,43.0,25.0,-100.00,ENE,60,12.0,21.0,48,0.00,,,-99.99,,2013-04-20 17:02:00,
2013-04-20 13:12:00,43.0,25.0,-100.00,ENE,60,9.0,18.0,49,0.00,,,-99.99,,2013-04-20 17:12:00,
2013-04-20 13:23:00,42.0,24.0,-100.00,NE,40,13.0,19.0,48,0.00,,,-99.99,,2013-04-20 17:23:00,
2013-04-20 13:33:00,43.0,26.0,-100.00,NE,50,9.0,19.0,49,0.00,,,-99.99,,2013-04-20 17:33:00,
2013-04-20 13:42:00,43.0,26.0,-100.00,NE,35,9.0,17.0,50,0.00,,,-99.99,,2013-04-20 17:42:00,
2013-04-20 13:52:00,43.0,24.0,-100.00,NE,40,12.0,17.0,47,0.00,,,-99.99,,2013-04-20 17:52:00,
2013-04-20 14:02:00,44.0,25.0,-100.00,ENE,60,7.0,18.0,48,0.00,,,-99.99,,2013-04-20 18:02:00,
2013-04-20 14:12:00,45.0,26.0,-100.00,NNE,20,11.0,19.0,48,0.00,,,-99.99,,2013-04-20 18:12:00,
2013-04-20 14:22:00,45.0,26.0,-100.00,NE,35,8.0,22.0,46,0.00,,,-99.99,,2013-04-20 18:22:00,
2013-04-20 14:32:00,45.0,25.0,-100.00,NNE,15,14.0,21.0,45,0.00,,,-99.99,,2013-04-20 18:32:00,
2013-04-20 14:42:00,45.0,26.0,-100.00,NE,45,7.0,19.0,45,0.00,,,-99.99,,2013-04-20 18:42:00,
2013-04-20 14:52:00,44.0,23.0,-100.00,NE,55,14.0,25.0,44,0.00,,,-99.99,,2013-04-20 18:52:00,
2013-04-20 15:02:00,45.0,24.0,-100.00,NNE,20,12.0,19.0,44,0.00,,,-99.99,,2013-04-20 19:02:00,
2013-04-20 15:11:00,44.0,24.0,-100.00,ENE,65,9.0,18.0,45,0.00,,,-99.99,,2013-04-20 19:11:00,
2013-04-20 15:21:00,45.0,25.0,-100.00,NE,55,7.0,18.0,45,0.00,,,-99.99,,2013-04-20 19:21:00,
2013-04-20 15:32:00,45.0,25.0,-100.00,East,85,11.0,21.0,45,0.00,,,-99.99,,2013-04-20 19:32:00,
2013-04-20 15:42:00,45.0,24.0,-100.00,ENE,65,11.0,18.0,43,0.00,,,-99.99,,2013-04-20 19:42:00,
2013-04-20 15:52:00,45.0,26.0,-100.00,NE,35,12.0,18.0,46,0.00,,,-99.99,,2013-04-20 19:52:00,
2013-04-20 16:02:00,45.0,24.0,-100.00,NE,50,9.0,17.0,43,0.00,,,-99.99,,2013-04-20 20:02:00,
2013-04-20 16:12:00,46.0,23.0,-100.00,NNE,25,13.0,21.0,40,0.00,,,-99.99,,2013-04-20 20:12:00,
2013-04-20 16:22:00,45.0,25.0,-100.00,ENE,60,8.0,23.0,44,0.00,,,-99.99,,2013-04-20 20:22:00,
2013-04-20 16:32:00,45.0,24.0,-100.00,East,100,7.0,15.0,44,0.00,,,-99.99,,2013-04-20 20:32:00,
2013-04-20 16:42:00,46.0,24.0,-100.00,NNE,15,11.0,19.0,41,0.00,,,-99.99,,2013-04-20 20:42:00,
2013-04-20 16:52:00,45.0,24.0,-100.00,ENE,75,15.0,20.0,43,0.00,,,-99.99,,2013-04-20 20:52:00,
2013-04-20 17:01:00,46.0,24.0,-100.00,East,95,10.0,19.0,41,0.00,,,-99.99,,2013-04-20 21:01:00,
2013-04-20 17:12:00,45.0,23.0,-100.00,ENE,75,9.0,17.0,42,0.00,,,-99.99,,2013-04-20 21:12:00,
2013-04-20 17:22:00,45.0,23.0,-100.00,ENE,60,13.0,20.0,41,0.00,,,-99.99,,2013-04-20 21:22:00,
2013-04-20 17:33:00,46.0,24.0,-100.00,ENE,70,10.0,18.0,42,0.00,,,-99.99,,2013-04-20 21:33:00,
2013-04-20 17:43:00,47.0,24.0,-100.00,East,80,7.0,14.0,41,0.00,,,-99.99,,2013-04-20 21:43:00,
2013-04-20 17:52:00,45.0,23.0,-100.00,NE,40,9.0,17.0,41,0.00,,,-99.99,,2013-04-20 21:52:00,
2013-04-20 18:03:00,46.0,24.0,-100.00,East,85,7.0,17.0,40,0.00,,,-99.99,,2013-04-20 22:03:00,
2013-04-20 18:12:00,46.0,23.0,-100.00,ENE,60,9.0,18.0,39,0.00,,,-99.99,,2013-04-20 22:12:00,
2013-04-20 18:22:00,45.0,23.0,-100.00,East,80,8.0,16.0,41,0.00,,,-99.99,,2013-04-20 22:22:00,
2013-04-20 18:32:00,46.0,24.0,-100.00,East,95,7.0,13.0,42,0.00,,,-99.99,,2013-04-20 22:32:00,
2013-04-20 18:42:00,46.0,23.0,-100.00,ENE,70,0.0,17.0,39,0.00,,,-99.99,,2013-04-20 22:42:00,
2013-04-20 18:52:00,46.0,24.0,-100.00,NE,55,0.0,0.0,41,0.00,,,-99.99,,2013-04-20 22:52:00,
2013-04-20 19:02:00,46.0,23.0,-100.00,East,85,0.0,0.0,40,0.00,,,-99.99,,2013-04-20 23:02:00,
2013-04-20 19:11:00,46.0,23.0,-100.00,East,100,0.0,0.0,40,0.00,,,-99.99,,2013-04-20 23:11:00,
2013-04-20 19:22:00,45.0,22.0,-100.00,East,90,0.0,0.0,40,0.00,,,-99.99,,2013-04-20 23:22:00,
2013-04-20 19:32:00,46.0,24.0,-100.00,East,100,0.0,0.0,41,0.00,,,-99.99,,2013-04-20 23:32:00,
2013-04-20 19:42:00,45.0,23.0,-100.00,ESE,115,0.0,0.0,40,0.00,,,-99.99,,2013-04-20 23:42:00,
2013-04-20 19:52:00,45.0,23.0,-100.00,East,80,0.0,0.0,41,0.00,,,-99.99,,2013-04-20 23:52:00,
2013-04-20 20:01:00,44.0,22.0,-100.00,ESE,115,0.0,0.0,41,0.00,,,-99.99,,2013-04-21 00:01:00,
2013-04-20 20:12:00,44.0,22.0,-100.00,East,95,0.0,0.0,41,0.00,,,-99.99,,2013-04-21 00:12:00,
2013-04-20 20:22:00,44.0,22.0,-100.00,ENE,75,0.0,0.0,42,0.00,,,-99.99,,2013-04-21 00:22:00,
2013-04-20 20:32:00,43.0,23.0,-100.00,ESE,105,0.0,0.0,44,0.00,,,-99.99,,2013-04-21 00:32:00,
2013-04-20 20:42:00,43.0,23.0,-100.00,ESE,115,0.0,0.0,44,0.00,,,-99.99,,2013-04-21 00:42:00,
2013-04-20 20:52:00,43.0,23.0,-100.00,ESE,115,0.0,0.0,44,0.00,,,-99.99,,2013-04-21 00:52:00,
2013-04-20 21:01:00,43.0,23.0,-100.00,ESE,105,0.0,0.0,45,0.00,,,-99.99,,2013-04-21 01:01:00,
2013-04-20 21:12:00,42.0,23.0,-100.00,East,100,0.0,0.0,46,0.00,,,-99.99,,2013-04-21 01:12:00,
2013-04-20 21:21:00,42.0,23.0,-100.00,SE,130,0.0,0.0,46,0.00,,,-99.99,,2013-04-21 01:21:00,
2013-04-20 21:32:00,42.0,24.0,-100.00,SE,140,0.0,0.0,47,0.00,,,-99.99,,2013-04-21 01:32:00,
2013-04-20 21:42:00,42.0,24.0,-100.00,ESE,120,0.0,0.0,48,0.00,,,-99.99,,2013-04-21 01:42:00,
2013-04-20 21:52:00,41.0,24.0,-100.00,ESE,115,0.0,0.0,49,0.00,,,-99.99,,2013-04-21 01:52:00,
2013-04-20 22:02:00,41.0,23.0,-100.00,ESE,115,0.0,0.0,48,0.00,,,-99.99,,2013-04-21 02:02:00,
2013-04-20 22:11:00,41.0,23.0,-100.00,SE,125,0.0,0.0,49,0.00,,,-99.99,,2013-04-21 02:11:00,
2013-04-20 22:22:00,41.0,24.0,-100.00,ESE,120,0.0,0.0,49,0.00,,,-99.99,,2013-04-21 02:22:00,
2013-04-20 22:32:00,41.0,23.0,-100.00,ESE,120,0.0,0.0,50,0.00,,,-99.99,,2013-04-21 02:32:00,
2013-04-20 22:42:00,40.0,24.0,-100.00,ESE,120,0.0,0.0,50,0.00,,,-99.99,,2013-04-21 02:42:00,
2013-04-20 22:52:00,40.0,24.0,-100.00,SE,125,0.0,0.0,52,0.00,,,-99.99,,2013-04-21 02:52:00,
2013-04-20 23:01:00,40.0,24.0,-100.00,SE,125,0.0,0.0,52,0.00,,,-99.99,,2013-04-21 03:01:00,
2013-04-20 23:11:00,40.0,24.0,-100.00,ESE,120,0.0,0.0,53,0.00,,,-99.99,,2013-04-21 03:11:00,
2013-04-20 23:21:00,39.0,24.0,-100.00,SE,140,0.0,0.0,54,0.00,,,-99.99,,2013-04-21 03:21:00,
2013-04-20 23:33:00,39.0,25.0,-100.00,SE,130,0.0,0.0,56,0.00,,,-99.99,,2013-04-21 03:33:00,
2013-04-20 23:42:00,39.0,24.0,-100.00,ESE,120,0.0,0.0,56,0.00,,,-99.99,,2013-04-21 03:42:00,
2013-04-20 23:52:00,38.0,25.0,-100.00,ESE,120,0.0,0.0,58,0.00,,,-99.99,,2013-04-21 03:52:00,